Time;durP1;ratioP1;P1;durP2;ratioP2;P2;SDS_P1;SDS_P2;PMS_P1;PMS_P2;Temp;Humidity;BMP_temperature;BMP_pressure;BME280_temperature;BME280_humidity;BME280_pressure;Samples;Min_cycle;Max_cycle;Signal;HPM_P1;HPM_P2
2022/05/25 00:01:21;;;;;;;0.20;0.20;;;;;;;11.80;100.00;99510.88;5083547;28;20023;-71
2022/05/25 00:03:46;;;;;;;0.22;0.22;;;;;;;11.81;100.00;99512.56;5083453;28;20027;-72
2022/05/25 00:06:12;;;;;;;0.20;0.20;;;;;;;11.80;100.00;99497.00;5083414;28;20025;-71
2022/05/25 00:08:40;;;;;;;0.30;0.30;;;;;;;11.82;100.00;99493.44;5083234;28;20112;-70
2022/05/25 00:11:05;;;;;;;0.73;0.73;;;;;;;11.87;100.00;99501.97;5083212;28;20035;-71
2022/05/25 00:13:31;;;;;;;1.20;1.20;;;;;;;11.85;100.00;99488.16;5083323;28;20024;-71
2022/05/25 00:15:56;;;;;;;0.47;0.47;;;;;;;11.90;100.00;99506.25;5083229;28;20063;-73
2022/05/25 00:18:22;;;;;;;0.30;0.30;;;;;;;11.84;100.00;99496.00;5083021;28;20392;-71
2022/05/25 00:20:48;;;;;;;0.30;0.30;;;;;;;11.84;100.00;99496.88;5083096;28;20023;-72
2022/05/25 00:23:13;;;;;;;0.20;0.20;;;;;;;11.88;100.00;99502.84;5083481;28;20033;-71
2022/05/25 00:25:40;;;;;;;0.28;0.28;;;;;;;11.88;100.00;99498.50;5083198;28;20036;-70
2022/05/25 00:28:09;;;;;;;0.20;0.20;;;;;;;11.90;100.00;99507.09;5082767;28;20048;-70
2022/05/25 00:30:35;;;;;;;0.30;0.30;;;;;;;11.91;100.00;99513.16;5082845;28;20025;-70
2022/05/25 00:33:02;;;;;;;0.20;0.20;;;;;;;11.90;100.00;99501.91;5081957;28;20055;-70
2022/05/25 00:35:30;;;;;;;0.30;0.30;;;;;;;11.90;100.00;99506.25;5083000;28;20080;-69
2022/05/25 00:37:55;;;;;;;0.20;0.20;;;;;;;11.87;100.00;99501.97;5082806;28;20017;-69
2022/05/25 00:40:35;;;;;;;0.30;0.30;;;;;;;11.83;100.00;99508.19;5082600;28;20062;-69
2022/05/25 00:43:00;;;;;;;0.22;0.22;;;;;;;11.82;100.00;99508.22;5082813;28;20484;-69
2022/05/25 00:45:26;;;;;;;0.20;0.20;;;;;;;11.84;100.00;99515.06;5082660;28;20029;-69
2022/05/25 00:47:52;;;;;;;0.20;0.20;;;;;;;11.84;100.00;99509.88;5082726;28;20024;-68
2022/05/25 00:50:22;;;;;;;0.30;0.30;;;;;;;11.85;100.00;99516.78;5082759;28;20059;-68
2022/05/25 00:52:49;;;;;;;0.20;0.20;;;;;;;11.78;100.00;99513.50;5064526;28;20020;-68
2022/05/25 00:55:26;;;;;;;0.22;0.22;;;;;;;11.80;100.00;99517.81;5082727;28;20016;-70
2022/05/25 00:57:54;;;;;;;0.50;0.50;;;;;;;11.80;100.00;99523.00;5082337;28;20035;-67
2022/05/25 01:00:26;;;;;;;0.68;0.68;;;;;;;11.79;100.00;99522.16;5082493;28;20017;-68
2022/05/25 01:03:02;;;;;;;0.30;0.30;;;;;;;11.76;100.00;99525.69;5082655;28;20047;-67
2022/05/25 01:05:34;;;;;;;0.82;0.82;;;;;;;11.76;100.00;99519.63;5082501;28;20028;-66
2022/05/25 01:08:33;;;;;;;0.20;0.20;;;;;;;11.72;100.00;99518.03;5082779;28;20098;-67
2022/05/25 01:11:05;;;;;;;0.95;0.95;;;;;;;11.74;100.00;99516.25;5082620;28;20097;-68
2022/05/25 01:13:39;;;;;;;0.20;0.20;;;;;;;11.66;100.00;99521.66;5082576;28;20051;-68
2022/05/25 01:16:32;;;;;;;0.55;0.55;;;;;;;11.64;100.00;99524.31;5082976;28;20028;-68
2022/05/25 01:19:27;;;;;;;0.30;0.30;;;;;;;11.62;100.00;99526.06;5082914;28;20016;-68
2022/05/25 01:22:32;;;;;;;0.30;0.30;;;;;;;11.59;99.98;99527.91;5082715;28;20044;-70
2022/05/25 01:25:19;;;;;;;1.58;1.48;;;;;;;11.52;99.31;99537.59;5082836;28;20035;-69
2022/05/25 01:27:48;;;;;;;0.30;0.30;;;;;;;11.50;99.46;99535.03;5082488;28;20115;-68
2022/05/25 01:30:20;;;;;;;0.20;0.20;;;;;;;11.49;99.61;99535.94;5082450;28;20016;-68
2022/05/25 01:33:22;;;;;;;0.30;0.30;;;;;;;11.49;99.17;99548.06;5082950;28;20432;-71
2022/05/25 01:36:00;;;;;;;0.20;0.20;;;;;;;11.49;99.28;99541.16;5082947;28;20080;-69
2022/05/25 01:38:41;;;;;;;0.20;0.20;;;;;;;11.50;99.37;99535.03;5082740;28;20047;-70
2022/05/25 01:41:13;;;;;;;0.38;0.38;;;;;;;11.59;99.45;99548.69;5082923;28;20041;-70
2022/05/25 01:44:05;;;;;;;0.40;0.40;;;;;;;11.50;99.66;99539.41;5082998;28;20036;-69
2022/05/25 01:46:35;;;;;;;0.30;0.30;;;;;;;11.50;99.11;99548.03;5086323;28;20080;-70
2022/05/25 01:49:08;;;;;;;0.30;0.30;;;;;;;11.48;99.05;99559.38;5086215;28;20028;-70
2022/05/25 01:51:44;;;;;;;0.38;0.38;;;;;;;11.48;98.90;99557.66;5086144;28;20031;-70
2022/05/25 01:54:13;;;;;;;0.47;0.43;;;;;;;11.41;99.30;99545.69;5085912;28;20021;-68
2022/05/25 01:56:43;;;;;;;0.30;0.30;;;;;;;11.42;98.94;99547.41;5085910;28;20037;-69
2022/05/25 01:59:12;;;;;;;0.40;0.40;;;;;;;11.45;98.68;99552.53;5085786;28;20296;-70
2022/05/25 02:04:54;;;;;;;0.20;0.20;;;;;;;11.43;98.45;99550.84;5079398;28;20046;-69
2022/05/25 02:07:37;;;;;;;0.20;0.20;;;;;;;11.49;98.40;99564.53;5085997;28;20036;-71
2022/05/25 02:10:25;;;;;;;0.20;0.20;;;;;;;11.46;98.50;99555.97;5085688;28;20549;-68
2022/05/25 02:13:26;;;;;;;0.30;0.30;;;;;;;11.39;96.95;99563.91;5085910;28;20028;-69
2022/05/25 02:16:21;;;;;;;0.20;0.20;;;;;;;11.36;96.78;99558.78;5085633;28;20017;-69
2022/05/25 02:19:05;;;;;;;0.22;0.22;;;;;;;11.36;96.87;99563.13;5085772;28;20103;-69
2022/05/25 02:21:35;;;;;;;0.30;0.30;;;;;;;11.38;96.76;99570.00;5085671;28;20021;-69
2022/05/25 02:24:20;;;;;;;0.50;0.50;;;;;;;11.33;96.84;99558.00;5085436;28;20542;-69
2022/05/25 02:26:55;;;;;;;0.20;0.20;;;;;;;11.39;96.40;99563.91;5085712;28;20479;-68
2022/05/25 02:29:30;;;;;;;0.20;0.20;;;;;;;11.44;97.09;99579.38;5084919;28;20078;-68
2022/05/25 02:32:09;;;;;;;3.45;1.23;;;;;;;11.43;97.07;99574.22;5085357;28;20036;-70
2022/05/25 02:34:38;;;;;;;0.20;0.20;;;;;;;11.40;96.54;99569.97;5085465;28;20104;-70
2022/05/25 02:37:05;;;;;;;0.20;0.20;;;;;;;11.41;96.58;99566.47;5085307;28;20028;-70
2022/05/25 02:39:30;;;;;;;0.20;0.20;;;;;;;11.46;96.89;99568.94;5085078;28;20029;-70
2022/05/25 02:41:57;;;;;;;0.30;0.30;;;;;;;11.46;97.02;99571.56;5084650;28;20040;-69
2022/05/25 02:44:23;;;;;;;0.20;0.20;;;;;;;11.46;96.56;99569.81;5084651;28;20040;-69
2022/05/25 02:46:49;;;;;;;0.30;0.30;;;;;;;11.42;96.61;99564.75;5084996;28;20055;-70
2022/05/25 02:49:16;;;;;;;0.30;0.30;;;;;;;11.43;96.26;99576.81;5085044;28;20020;-69
2022/05/25 02:51:42;;;;;;;0.20;0.20;;;;;;;11.44;96.41;99569.00;5084814;28;20032;-70
2022/05/25 02:54:08;;;;;;;0.30;0.30;;;;;;;11.44;96.57;99565.56;5084800;28;20024;-69
2022/05/25 02:56:34;;;;;;;0.30;0.30;;;;;;;11.46;96.94;99568.94;5065822;28;20025;-68
2022/05/25 02:58:59;;;;;;;0.25;0.25;;;;;;;11.52;96.18;99567.06;5084403;28;20435;-69
2022/05/25 03:01:25;;;;;;;0.35;0.35;;;;;;;11.48;96.56;99567.19;5084725;28;20019;-69
2022/05/25 03:03:51;;;;;;;0.32;0.32;;;;;;;11.44;96.23;99569.00;5084841;28;20036;-69
2022/05/25 03:06:18;;;;;;;0.30;0.30;;;;;;;11.51;96.89;99577.50;5084795;28;20539;-69
2022/05/25 03:08:43;;;;;;;0.20;0.20;;;;;;;11.52;96.69;99572.25;5084511;28;20035;-69
2022/05/25 03:11:08;;;;;;;0.20;0.20;;;;;;;11.48;96.86;99560.25;5066555;28;20025;-66
2022/05/25 03:13:35;;;;;;;0.28;0.28;;;;;;;11.51;95.91;99572.28;5084150;28;20032;-66
2022/05/25 03:16:03;;;;;;;0.30;0.30;;;;;;;11.46;96.41;99569.81;5084213;28;20024;-65
2022/05/25 03:18:29;;;;;;;0.28;0.28;;;;;;;11.42;96.32;99567.34;5084160;28;20035;-66
2022/05/25 03:20:54;;;;;;;0.30;0.30;;;;;;;11.29;96.73;99567.66;5084221;28;20025;-66
2022/05/25 03:23:20;;;;;;;0.30;0.30;;;;;;;11.21;96.29;99564.38;5084195;28;20039;-67
2022/05/25 03:25:46;;;;;;;0.30;0.30;;;;;;;11.13;96.62;99573.19;5084245;28;20024;-69
2022/05/25 03:28:12;;;;;;;0.30;0.30;;;;;;;10.98;96.95;99570.97;5084042;28;20148;-71
2022/05/25 03:30:38;;;;;;;0.20;0.20;;;;;;;10.95;97.20;99563.25;5084105;28;20036;-73
2022/05/25 03:33:03;;;;;;;1.48;1.38;;;;;;;10.89;97.72;99564.28;5084107;28;20396;-71
2022/05/25 03:35:29;;;;;;;0.30;0.30;;;;;;;10.88;98.17;99572.94;5084015;28;20024;-71
2022/05/25 03:37:54;;;;;;;0.25;0.25;;;;;;;10.86;98.84;99570.38;5066088;28;20020;-71
2022/05/25 03:40:20;;;;;;;0.30;0.30;;;;;;;10.94;98.94;99570.22;5083711;28;20044;-71
2022/05/25 03:42:47;;;;;;;0.30;0.30;;;;;;;10.97;99.17;99569.28;5083684;28;20025;-70
2022/05/25 03:45:15;;;;;;;1.17;1.17;;;;;;;11.00;99.52;99577.88;5083603;28;20060;-70
2022/05/25 03:47:41;;;;;;;0.20;0.20;;;;;;;10.97;99.79;99567.53;5083946;28;20050;-69
2022/05/25 03:50:07;;;;;;;0.20;0.20;;;;;;;10.97;99.67;99577.06;5083516;28;20025;-70
2022/05/25 03:52:33;;;;;;;0.20;0.20;;;;;;;10.99;99.79;99580.50;5083742;28;20039;-70
2022/05/25 03:54:58;;;;;;;0.30;0.30;;;;;;;10.95;99.95;99565.84;5083747;28;20028;-69
2022/05/25 03:57:24;;;;;;;0.30;0.30;;;;;;;11.00;99.90;99577.00;5083777;28;20029;-70
2022/05/25 03:59:50;;;;;;;0.20;0.20;;;;;;;11.02;99.75;99575.22;5083260;28;20044;-69
2022/05/25 04:02:15;;;;;;;0.30;0.30;;;;;;;11.01;99.25;99584.75;5083680;28;20545;-69
2022/05/25 04:04:41;;;;;;;0.30;0.30;;;;;;;10.99;99.44;99576.13;5083323;28;20031;-68
2022/05/25 04:07:06;;;;;;;0.30;0.30;;;;;;;10.93;99.57;99567.66;5083436;28;20032;-69
2022/05/25 04:09:31;;;;;;;0.30;0.30;;;;;;;10.97;99.29;99580.53;5083128;28;20024;-68
2022/05/25 04:11:57;;;;;;;0.22;0.22;;;;;;;10.94;99.04;99583.19;5083377;28;20448;-67
2022/05/25 04:14:23;;;;;;;0.28;0.28;;;;;;;10.92;98.76;99582.38;5082921;28;20092;-67
2022/05/25 04:16:49;;;;;;;0.30;0.30;;;;;;;10.91;98.86;99584.09;5083315;28;20527;-67
2022/05/25 04:19:14;;;;;;;0.30;0.30;;;;;;;10.89;98.31;99583.28;5083170;28;20028;-67
2022/05/25 04:21:40;;;;;;;0.40;0.40;;;;;;;10.93;98.97;99576.28;5083303;28;20020;-66
2022/05/25 04:24:06;;;;;;;0.30;0.30;;;;;;;10.94;98.63;99583.19;5083242;28;20043;-66
2022/05/25 04:26:32;;;;;;;0.30;0.30;;;;;;;10.98;98.67;99578.75;5083193;28;20522;-66
2022/05/25 04:28:58;;;;;;;0.30;0.30;;;;;;;11.03;98.37;99585.56;5082709;28;20030;-67
2022/05/25 04:31:24;;;;;;;0.30;0.30;;;;;;;11.06;98.43;99587.25;5082993;28;20035;-67
2022/05/25 04:33:49;;;;;;;0.30;0.30;;;;;;;11.11;98.57;99588.00;5082971;28;20020;-67
2022/05/25 04:36:15;;;;;;;0.30;0.30;;;;;;;11.17;98.44;99588.75;5083098;28;20352;-65
2022/05/25 04:38:40;;;;;;;0.30;0.30;;;;;;;11.20;97.94;99580.88;5082878;28;20107;-66
2022/05/25 04:41:06;;;;;;;0.30;0.30;;;;;;;11.19;98.29;99590.41;5082716;28;20063;-66
2022/05/25 04:43:31;;;;;;;0.30;0.30;;;;;;;11.23;97.94;99591.19;5082774;28;20017;-68
2022/05/25 04:45:59;;;;;;;0.30;0.30;;;;;;;11.25;97.79;99591.97;5082975;28;20433;-67
2022/05/25 04:48:25;;;;;;;0.30;0.30;;;;;;;11.28;97.58;99597.09;5083011;28;20025;-67
2022/05/25 04:50:53;;;;;;;0.30;0.30;;;;;;;11.34;97.41;99602.16;5082714;28;20032;-67
2022/05/25 04:53:20;;;;;;;0.30;0.30;;;;;;;11.37;97.37;99596.03;5083043;28;20236;-67
2022/05/25 04:58:34;;;;;;;0.30;0.30;;;;;;;11.42;96.58;99606.31;5082658;28;20034;-71
2022/05/25 05:01:00;;;;;;;0.30;0.30;;;;;;;11.43;96.58;99597.63;5082952;28;20100;-64
2022/05/25 05:03:27;;;;;;;0.30;0.30;;;;;;;11.42;96.52;99598.53;5082797;28;20067;-69
2022/05/25 05:05:54;;;;;;;0.30;0.30;;;;;;;11.44;96.53;99609.75;5082594;28;20020;-72
2022/05/25 05:08:20;;;;;;;2.58;2.38;;;;;;;11.45;96.09;99603.66;5082442;28;20050;-69
2022/05/25 05:10:46;;;;;;;1.25;1.25;;;;;;;11.49;96.67;99600.06;5082202;28;20099;-72
2022/05/25 05:13:11;;;;;;;0.30;0.30;;;;;;;11.50;95.97;99605.22;5082206;28;20507;-71
2022/05/25 05:15:48;;;;;;;0.30;0.30;;;;;;;11.49;95.91;99607.88;5082685;28;20020;-70
2022/05/25 05:18:15;;;;;;;0.30;0.30;;;;;;;11.48;95.63;99600.97;5082529;28;20020;-71
2022/05/25 05:20:41;;;;;;;0.30;0.30;;;;;;;11.48;95.50;99603.56;5086181;28;20052;-71
2022/05/25 05:23:06;;;;;;;0.30;0.30;;;;;;;11.49;95.82;99608.72;5085830;28;20021;-71
2022/05/25 05:25:33;;;;;;;0.30;0.30;;;;;;;11.53;95.44;99612.09;5086013;28;20020;-69
2022/05/25 05:28:11;;;;;;;0.30;0.30;;;;;;;11.56;95.91;99612.03;5086039;28;20032;-73
2022/05/25 05:30:46;;;;;;;0.30;0.30;;;;;;;11.60;95.82;99611.03;5085823;28;20028;-72
2022/05/25 05:33:12;;;;;;;0.30;0.30;;;;;;;11.61;95.89;99610.16;5085762;28;20028;-72
2022/05/25 05:35:37;;;;;;;0.20;0.20;;;;;;;11.67;95.86;99608.28;5085688;28;20119;-72
2022/05/25 05:38:02;;;;;;;0.30;0.30;;;;;;;11.79;96.60;99610.56;5085560;28;20072;-71
2022/05/25 05:40:29;;;;;;;0.20;0.20;;;;;;;11.78;95.59;99619.25;5085252;28;20108;-71
2022/05/25 05:42:55;;;;;;;0.30;0.30;;;;;;;11.75;95.56;99621.94;5085885;28;20094;-71
2022/05/25 05:45:25;;;;;;;0.30;0.30;;;;;;;11.74;95.52;99622.84;5085202;28;20444;-71
2022/05/25 05:48:01;;;;;;;0.22;0.22;;;;;;;11.75;95.27;99630.63;5085398;28;20029;-73
2022/05/25 05:50:28;;;;;;;0.30;0.30;;;;;;;11.63;94.10;99639.56;5085289;28;20049;-72
2022/05/25 05:52:54;;;;;;;0.32;0.32;;;;;;;11.50;93.96;99644.22;5067123;28;20027;-70
2022/05/25 05:55:20;;;;;;;0.32;0.32;;;;;;;11.40;94.36;99642.75;5085575;28;20028;-71
2022/05/25 05:57:45;;;;;;;0.30;0.30;;;;;;;11.28;94.17;99642.13;5085327;28;20028;-71
2022/05/25 06:00:13;;;;;;;0.30;0.30;;;;;;;11.21;93.53;99647.53;5085276;28;20080;-71
2022/05/25 06:02:38;;;;;;;0.30;0.30;;;;;;;11.17;94.30;99651.94;5085610;28;20032;-71
2022/05/25 06:05:04;;;;;;;0.20;0.20;;;;;;;11.16;93.84;99668.41;5085396;28;20059;-71
2022/05/25 06:07:29;;;;;;;0.30;0.30;;;;;;;11.17;93.57;99672.72;5085426;28;20028;-72
2022/05/25 06:09:56;;;;;;;0.30;0.30;;;;;;;11.19;93.80;99670.94;5085396;28;20021;-72
2022/05/25 06:12:22;;;;;;;0.30;0.30;;;;;;;11.15;93.10;99670.16;5085483;28;20063;-72
2022/05/25 06:14:47;;;;;;;0.30;0.30;;;;;;;11.21;92.05;99686.50;5067020;28;20025;-72
2022/05/25 06:19:58;;;;;;;0.30;0.30;;;;;;;11.31;90.51;99690.56;5085454;28;20543;-72
2022/05/25 06:22:23;;;;;;;0.30;0.30;;;;;;;11.42;90.43;99700.75;5085117;28;20028;-72
2022/05/25 06:24:51;;;;;;;0.55;0.55;;;;;;;11.53;89.33;99701.31;5067146;28;20027;-71
2022/05/25 06:27:19;;;;;;;0.30;0.30;;;;;;;11.60;89.13;99706.38;5085303;28;20421;-72
2022/05/25 06:29:50;;;;;;;0.30;0.30;;;;;;;11.64;87.89;99708.91;5084220;28;20029;-72
2022/05/25 06:32:19;;;;;;;0.30;0.30;;;;;;;11.71;87.57;99703.53;5084488;28;20031;-72
2022/05/25 06:34:47;;;;;;;0.20;0.20;;;;;;;11.69;87.84;99698.38;5084829;28;20021;-72
2022/05/25 06:37:21;;;;;;;0.30;0.30;;;;;;;11.72;87.47;99711.31;5084863;28;20021;-72
2022/05/25 06:39:47;;;;;;;1.35;0.93;;;;;;;11.75;87.65;99708.63;5084773;28;20050;-72
2022/05/25 06:42:12;;;;;;;0.30;0.30;;;;;;;11.87;87.27;99710.06;5084681;28;20161;-72
2022/05/25 06:44:38;;;;;;;0.55;0.55;;;;;;;11.90;86.61;99715.19;5084814;28;20036;-71
2022/05/25 06:47:04;;;;;;;0.30;0.30;;;;;;;11.93;86.74;99723.81;5067499;28;20016;-72
2022/05/25 06:49:29;;;;;;;0.30;0.30;;;;;;;11.95;84.88;99728.06;5084657;28;20044;-72
2022/05/25 06:51:55;;;;;;;0.30;0.30;;;;;;;11.99;84.72;99729.72;5084737;28;20040;-71
2022/05/25 06:54:21;;;;;;;0.30;0.30;;;;;;;12.13;85.06;99734.59;5084574;28;20029;-72
2022/05/25 06:56:46;;;;;;;0.20;0.20;;;;;;;12.42;86.12;99742.53;5084741;28;20386;-74
2022/05/25 06:59:12;;;;;;;0.20;0.20;;;;;;;12.73;85.50;99738.22;5084131;28;20048;-73
2022/05/25 07:01:39;;;;;;;0.30;0.30;;;;;;;12.95;84.55;99735.88;5084366;28;20120;-73
2022/05/25 07:04:06;;;;;;;0.20;0.20;;;;;;;13.23;83.78;99739.38;5084543;28;20021;-73
2022/05/25 07:06:38;;;;;;;0.22;0.22;;;;;;;13.55;81.38;99745.38;5084485;28;20020;-73
2022/05/25 07:09:05;;;;;;;0.30;0.30;;;;;;;13.81;81.49;99751.53;5083906;28;20059;-73
2022/05/25 07:11:31;;;;;;;0.20;0.20;;;;;;;13.87;77.41;99750.47;5084052;28;20249;-73
2022/05/25 07:13:58;;;;;;;0.20;0.20;;;;;;;13.91;80.21;99749.50;5065933;28;20021;-74
2022/05/25 07:16:23;;;;;;;0.20;0.20;;;;;;;14.02;80.71;99761.31;5084388;28;20030;-74
2022/05/25 07:18:49;;;;;;;0.30;0.30;;;;;;;14.06;77.97;99760.28;5084095;28;20259;-74
2022/05/25 07:21:21;;;;;;;0.20;0.20;;;;;;;13.87;77.60;99756.56;5066386;28;20309;-74
2022/05/25 07:23:48;;;;;;;0.20;0.20;;;;;;;13.96;77.32;99767.59;5084244;28;20042;-73
2022/05/25 07:26:15;;;;;;;0.20;0.20;;;;;;;14.50;79.90;99759.69;5084684;28;20031;-73
2022/05/25 07:28:41;;;;;;;0.20;0.20;;;;;;;14.84;75.37;99774.19;5083912;28;20490;-72
2022/05/25 07:31:29;;;;;;;0.20;0.20;;;;;;;15.15;74.86;99769.56;5083996;28;20080;-72
2022/05/25 07:34:01;;;;;;;0.20;0.20;;;;;;;15.28;73.68;99779.56;5083776;28;20025;-72
2022/05/25 07:36:27;;;;;;;;;;;;;;;15.26;71.70;99781.38;5084216;28;20031;-72
2022/05/25 07:38:57;;;;;;;0.20;0.20;;;;;;;15.24;73.42;99786.66;5083884;28;19912;-73
2022/05/25 07:41:24;;;;;;;0.20;0.20;;;;;;;15.22;73.66;99784.09;5065076;28;20511;-72
2022/05/25 07:43:57;;;;;;;0.20;0.20;;;;;;;15.29;73.08;99789.97;5083609;28;20060;-73
2022/05/25 07:46:26;;;;;;;0.20;0.20;;;;;;;15.54;73.81;99789.03;5083891;28;20047;-73
2022/05/25 07:48:51;;;;;;;0.52;0.52;;;;;;;15.53;71.74;99807.41;5083645;28;20032;-73
2022/05/25 07:51:18;;;;;;;0.20;0.20;;;;;;;15.33;70.84;99802.03;5083614;28;20035;-73
2022/05/25 07:53:56;;;;;;;0.28;0.28;;;;;;;15.05;70.68;99804.84;5083850;28;20085;-73
2022/05/25 07:56:23;;;;;;;0.20;0.20;;;;;;;14.98;73.86;99807.63;5083609;28;20020;-73
2022/05/25 07:58:49;;;;;;;0.20;0.20;;;;;;;14.97;73.34;99807.69;5083356;28;20112;-73
2022/05/25 08:05:43;;;;;;;0.73;0.73;;;;;;;14.86;73.72;99811.56;5083450;28;20020;-72
2022/05/25 08:06:49;;;;;;;0.20;0.20;;;;;;;14.47;70.64;99806.81;5083580;28;20031;-72
2022/05/25 08:09:14;;;;;;;0.30;0.30;;;;;;;14.25;71.34;99813.59;5083115;28;20122;-73
2022/05/25 08:11:40;;;;;;;0.30;0.30;;;;;;;14.13;70.93;99814.88;5065183;28;20016;-72
2022/05/25 08:14:05;;;;;;;0.20;0.20;;;;;;;14.02;70.53;99814.38;5082953;28;20025;-72
2022/05/25 08:16:31;;;;;;;0.20;0.20;;;;;;;14.04;72.10;99812.53;5083396;28;20013;-73
2022/05/25 08:18:56;;;;;;;0.20;0.20;;;;;;;14.20;72.54;99817.28;5065147;28;20377;-72
2022/05/25 08:21:21;;;;;;;5.78;3.15;;;;;;;14.37;73.52;99814.97;5083465;28;20021;-72
2022/05/25 08:23:47;;;;;;;7.75;3.20;;;;;;;14.52;73.59;99817.94;5083059;28;20385;-72
2022/05/25 08:26:12;;;;;;;8.25;3.67;;;;;;;14.71;73.31;99820.75;5083170;28;20033;-72
2022/05/25 08:28:37;;;;;;;12.05;2.78;;;;;;;14.63;70.92;99821.03;5064535;28;20476;-72
2022/05/25 08:31:03;;;;;;;6.82;3.30;;;;;;;14.46;71.72;99821.63;5083130;28;20368;-71
2022/05/25 08:33:28;;;;;;;5.60;2.50;;;;;;;14.30;70.75;99823.03;5082951;28;20025;-72
2022/05/25 08:35:53;;;;;;;4.50;2.72;;;;;;;14.23;72.63;99820.63;5082950;28;20031;-72
2022/05/25 08:38:21;;;;;;;7.75;2.38;;;;;;;14.57;71.85;99817.81;5082980;28;20101;-73
2022/05/25 08:40:47;;;;;;;6.03;2.80;;;;;;;15.09;71.56;99825.56;5082692;28;20063;-72
2022/05/25 08:43:22;;;;;;;7.75;2.75;;;;;;;15.23;70.96;99842.50;5083025;28;20028;-72
2022/05/25 08:45:51;;;;;;;5.78;2.80;;;;;;;15.32;70.85;99829.06;5082865;28;20215;-74
2022/05/25 08:48:19;;;;;;;9.80;3.35;;;;;;;15.31;69.02;99834.38;5083075;28;20016;-72
2022/05/25 08:50:50;;;;;;;4.78;2.40;;;;;;;15.45;69.31;99826.00;5082903;28;20020;-72
2022/05/25 08:53:18;;;;;;;10.07;3.15;;;;;;;15.59;69.38;99833.34;5083048;28;20024;-73
2022/05/25 08:56:02;;;;;;;10.07;3.00;;;;;;;15.82;70.50;99840.28;5087103;28;20024;-73
2022/05/25 08:58:42;;;;;;;6.07;2.95;;;;;;;16.07;66.46;99833.25;5086764;28;20024;-73
2022/05/25 09:01:10;;;;;;;6.88;2.53;;;;;;;16.19;67.48;99843.22;5087167;28;20024;-74
2022/05/25 09:03:56;;;;;;;4.57;2.78;;;;;;;16.33;66.99;99845.25;5087225;28;20040;-73
2022/05/25 09:06:47;;;;;;;6.35;2.78;;;;;;;16.24;65.67;99840.41;5086752;28;20514;-73
2022/05/25 09:09:22;;;;;;;4.28;2.30;;;;;;;15.93;65.28;99836.34;5086492;28;20024;-73
2022/05/25 09:11:52;;;;;;;3.75;2.00;;;;;;;15.57;66.23;99840.38;5086497;28;20025;-73
2022/05/25 09:14:28;;;;;;;7.00;2.53;;;;;;;15.37;65.71;99844.59;5086220;28;20025;-73
2022/05/25 09:16:57;;;;;;;8.63;3.03;;;;;;;15.12;66.32;99842.91;5068460;28;20020;-73
2022/05/25 09:19:28;;;;;;;7.78;2.55;;;;;;;15.02;67.63;99844.97;5086517;28;20028;-73
2022/05/25 09:22:22;;;;;;;11.80;2.90;;;;;;;14.86;67.98;99853.38;5086837;28;20020;-73
2022/05/25 09:24:50;;;;;;;12.07;3.10;;;;;;;14.96;69.26;99851.31;5079180;28;20063;-73
2022/05/25 09:27:19;;;;;;;9.27;3.38;;;;;;;16.17;69.88;99849.41;5068866;28;20309;-73
2022/05/25 09:29:45;;;;;;;7.28;2.20;;;;;;;16.62;65.50;99854.56;5086368;28;20032;-73
2022/05/25 09:33:07;;;;;;;6.63;3.28;;;;;;;16.12;65.07;99844.34;5086710;28;20055;-73
2022/05/25 09:35:38;;;;;;;8.82;2.25;;;;;;;14.97;65.08;99875.66;5024181;28;20061;-71
2022/05/25 09:38:10;;;;;;;8.95;2.38;;;;;;;14.13;67.96;99872.31;5024111;28;20033;-72
2022/05/25 09:40:44;;;;;;;8.93;2.42;;;;;;;13.36;69.57;99880.66;5023867;28;20056;-70
2022/05/25 09:43:12;;;;;;;9.55;2.60;;;;;;;12.82;71.40;99888.19;5024123;28;20042;-70
2022/05/25 09:45:49;;;;;;;11.70;3.55;;;;;;;12.52;73.75;99894.97;5024191;28;20034;-69
2022/05/25 09:48:17;;;;;;;12.07;3.55;;;;;;;12.48;75.43;99892.50;5024283;28;20056;-71
2022/05/25 09:50:44;;;;;;;7.45;2.47;;;;;;;12.64;76.67;99880.81;5024043;28;20510;-72
2022/05/25 09:53:14;;;;;;;7.63;2.60;;;;;;;12.88;76.75;99891.47;5024022;28;20453;-72
2022/05/25 09:55:46;;;;;;;5.75;2.83;;;;;;;13.09;77.37;99896.16;5024194;28;20030;-71
2022/05/25 09:58:58;;;;;;;11.48;3.00;;;;;;;13.30;77.53;99888.63;5007512;28;20034;-71
2022/05/25 10:01:24;;;;;;;;;;;;;;;13.80;77.52;99884.63;4985342;28;20041;-71
2022/05/25 10:03:50;;;;;;;8.82;2.70;;;;;;;14.04;76.97;99883.00;4984842;28;19910;-70
2022/05/25 10:06:24;;;;;;;8.70;2.53;;;;;;;14.23;76.29;99875.44;5003395;28;20081;-71
2022/05/25 10:09:15;;;;;;;6.25;2.42;;;;;;;14.32;75.54;99876.94;5024018;28;20504;-71
2022/05/25 10:11:48;;;;;;;9.13;2.70;;;;;;;14.48;76.70;99884.25;5023607;28;20022;-71
2022/05/25 10:14:26;;;;;;;4.60;2.20;;;;;;;14.55;75.69;99871.84;5007057;28;20030;-73
2022/05/25 10:16:53;;;;;;;7.68;1.90;;;;;;;15.23;74.16;99873.88;5023771;28;20064;-71
2022/05/25 10:19:21;;;;;;;7.35;2.10;;;;;;;16.01;71.06;99881.44;5023501;28;20142;-71
2022/05/25 10:21:58;;;;;;;4.35;1.48;;;;;;;16.43;70.90;99878.91;5023697;28;20517;-71
2022/05/25 10:24:40;;;;;;;5.05;1.83;;;;;;;17.56;66.22;99888.94;5023611;28;20026;-71
2022/05/25 10:27:22;;;;;;;5.57;1.83;;;;;;;18.38;62.98;99878.13;5023573;28;20022;-72
2022/05/25 10:38:31;;;;;;;2.28;1.30;;;;;;;16.98;60.20;99888.00;5085971;28;20036;-71
2022/05/25 10:41:37;;;;;;;2.58;0.93;;;;;;;16.92;60.50;99902.19;5085359;28;20050;-72
2022/05/25 10:44:18;;;;;;;2.55;1.20;;;;;;;16.77;59.75;99906.34;5085118;28;20032;-71
2022/05/25 10:46:57;;;;;;;2.70;1.13;;;;;;;16.61;59.07;99906.13;5085035;28;20055;-73
2022/05/25 10:49:40;;;;;;;7.82;1.05;;;;;;;16.52;59.14;99909.13;5067506;28;20031;-72
2022/05/25 10:52:29;;;;;;;3.30;1.23;;;;;;;16.53;61.21;99901.22;5085564;28;20060;-72
2022/05/25 10:54:56;;;;;;;4.18;1.30;;;;;;;16.77;61.22;99898.47;5085499;28;20025;-71
2022/05/25 10:57:44;;;;;;;5.68;1.45;;;;;;;16.80;58.41;99908.84;5085381;28;20179;-72
2022/05/25 11:00:51;;;;;;;3.33;1.35;;;;;;;16.58;60.12;99911.50;5084812;28;20017;-72
2022/05/25 11:03:48;;;;;;;4.57;1.23;;;;;;;16.52;57.94;99896.03;5022816;28;20045;-72
2022/05/25 11:06:31;;;;;;;3.00;1.40;;;;;;;16.46;58.58;99886.66;5022828;28;20049;-72
2022/05/25 11:09:24;;;;;;;4.25;1.70;;;;;;;16.29;59.17;99905.69;5022851;28;20479;-72
2022/05/25 11:12:20;;;;;;;3.10;1.35;;;;;;;15.78;57.74;99896.28;5022789;28;20038;-73
2022/05/25 11:15:15;;;;;;;5.75;1.70;;;;;;;15.43;60.49;99899.28;5022492;28;20042;-71
2022/05/25 11:18:00;;;;;;;8.13;1.95;;;;;;;15.15;62.32;99889.84;5017637;28;20042;-71
2022/05/25 11:20:44;;;;;;;5.53;2.17;;;;;;;15.01;63.96;99906.03;5023399;28;20029;-70
2022/05/25 11:23:23;;;;;;;10.02;3.22;;;;;;;14.61;65.37;99918.66;5022552;28;20037;-72
2022/05/25 11:26:22;;;;;;;8.77;2.97;;;;;;;14.13;66.98;99931.47;5022644;28;20069;-75
2022/05/25 11:29:00;;;;;;;8.90;2.10;;;;;;;13.35;68.01;99931.94;5022188;28;20085;-76
2022/05/25 11:31:47;;;;;;;6.03;1.98;;;;;;;12.71;70.23;99940.56;5005987;28;20022;-74
2022/05/25 11:34:40;;;;;;;6.82;2.90;;;;;;;12.22;72.75;99922.63;5022135;28;20049;-75
2022/05/25 11:37:18;;;;;;;8.68;2.30;;;;;;;11.85;74.80;99919.06;5022377;28;20458;-74
2022/05/25 11:40:05;;;;;;;7.55;1.92;;;;;;;11.77;77.13;99916.63;5037908;28;20051;-73
2022/05/25 11:42:55;;;;;;;4.55;2.13;;;;;;;11.88;78.98;99909.44;5084348;28;20040;-73
2022/05/25 11:45:42;;;;;;;4.22;2.08;;;;;;;12.13;80.29;99908.06;5084188;28;20031;-71
2022/05/25 11:48:51;;;;;;;3.53;1.58;;;;;;;12.28;80.93;99912.06;5084337;28;20032;-72
2022/05/25 11:51:31;;;;;;;2.35;1.58;;;;;;;12.48;82.54;99914.19;5002069;28;20045;-74
2022/05/25 11:54:26;;;;;;;4.90;1.70;;;;;;;12.74;83.50;99911.81;5002121;28;20056;-72
2022/05/25 11:57:35;;;;;;;6.57;1.70;;;;;;;13.10;83.42;99910.91;5002401;28;20054;-73
2022/05/25 12:00:06;;;;;;;4.53;1.42;;;;;;;13.44;83.53;99917.78;4988354;28;20038;-74
2022/05/25 12:02:52;;;;;;;4.72;1.63;;;;;;;13.68;83.07;99923.22;5002377;28;20414;-75
2022/05/25 12:05:20;;;;;;;6.35;2.15;;;;;;;13.77;81.76;99923.88;5002183;28;20031;-73
2022/05/25 12:07:52;;;;;;;5.07;1.40;;;;;;;13.85;82.22;99920.13;5001987;28;20042;-72
2022/05/25 12:10:25;;;;;;;3.83;1.30;;;;;;;14.00;81.67;99912.72;5001874;28;20026;-73
2022/05/25 12:13:09;;;;;;;3.90;1.50;;;;;;;14.18;81.02;99916.53;5001995;28;20029;-71
2022/05/25 12:15:51;;;;;;;6.60;1.73;;;;;;;14.44;81.71;99917.44;5001931;28;20045;-71